createdAt,value
2023-07-14T06:10:14.869Z,20.70
2023-07-14T06:12:41.658Z,20.80
2023-07-14T06:15:09.038Z,20.80
2023-07-14T06:17:35.762Z,20.80
2023-07-14T06:20:02.511Z,20.80
2023-07-14T06:22:29.246Z,20.80
2023-07-14T06:24:56.293Z,20.80
2023-07-14T06:27:24.268Z,20.80
2023-07-14T06:29:51.031Z,20.80
2023-07-14T06:32:17.752Z,20.80
2023-07-14T06:34:44.955Z,20.80
2023-07-14T06:37:11.625Z,20.80
2023-07-14T06:39:38.843Z,20.80
2023-07-14T06:42:06.347Z,20.80
2023-07-14T06:44:33.097Z,20.80
2023-07-14T06:47:00.207Z,20.90
2023-07-14T06:49:29.114Z,20.90
2023-07-14T06:51:56.627Z,21.00
2023-07-14T06:54:23.354Z,21.10
2023-07-14T06:56:50.098Z,21.10
2023-07-14T06:59:16.767Z,21.20
2023-07-14T07:01:43.445Z,21.20
2023-07-14T07:04:10.196Z,21.30
2023-07-14T07:06:36.984Z,21.40
2023-07-14T07:09:05.258Z,21.50
2023-07-14T07:11:34.033Z,21.50
2023-07-14T07:14:01.173Z,21.50
2023-07-14T07:16:27.944Z,21.60
2023-07-14T07:18:54.695Z,21.60
2023-07-14T07:21:21.341Z,21.70
2023-07-14T07:23:48.067Z,21.70
2023-07-14T07:26:15.195Z,21.80
2023-07-14T07:28:42.024Z,21.80
2023-07-14T07:31:12.080Z,21.80
2023-07-14T07:33:39.322Z,21.80
2023-07-14T07:36:16.234Z,21.80
2023-07-14T07:38:53.543Z,21.80
2023-07-14T07:41:23.748Z,21.90
2023-07-14T07:43:50.988Z,22.00
2023-07-14T07:46:18.051Z,22.10
2023-07-14T07:48:46.164Z,22.10
2023-07-14T07:51:13.429Z,22.20
2023-07-14T07:53:40.779Z,22.20
2023-07-14T07:56:08.026Z,22.30
2023-07-14T07:58:35.074Z,22.40
2023-07-14T08:01:04.466Z,22.40
2023-07-14T08:03:32.445Z,22.50
2023-07-14T08:06:01.562Z,22.60
2023-07-14T08:08:29.163Z,22.70
2023-07-14T08:10:56.391Z,22.80
2023-07-14T08:13:26.113Z,22.80
2023-07-14T08:15:55.253Z,22.90
2023-07-14T08:18:22.985Z,23.00
2023-07-14T08:20:50.680Z,23.10
2023-07-14T08:23:18.435Z,23.20
2023-07-14T08:25:45.225Z,23.20
2023-07-14T08:28:11.938Z,23.30
2023-07-14T08:30:39.194Z,23.30
2023-07-14T08:33:05.905Z,23.40
2023-07-14T08:35:32.757Z,23.40
2023-07-14T08:37:59.519Z,23.40
2023-07-14T08:40:31.047Z,23.50
2023-07-14T08:43:22.331Z,23.50
2023-07-14T08:45:58.879Z,23.50
2023-07-14T08:48:28.516Z,23.60
2023-07-14T08:50:58.755Z,23.60
2023-07-14T08:53:29.817Z,23.60
2023-07-14T08:56:05.222Z,23.60
2023-07-14T08:58:40.834Z,23.60
2023-07-14T09:01:27.619Z,23.70
2023-07-14T09:03:59.656Z,23.70
2023-07-14T09:06:34.194Z,23.80
2023-07-14T09:09:01.319Z,23.80
2023-07-14T09:11:46.257Z,23.80
2023-07-14T09:14:32.329Z,23.80
2023-07-14T09:17:06.637Z,23.80
2023-07-14T09:20:01.592Z,23.70
2023-07-14T09:22:38.709Z,23.70
2023-07-14T09:25:30.636Z,23.70
2023-07-14T09:27:57.479Z,23.70
2023-07-14T09:30:29.046Z,23.70
2023-07-14T09:33:02.965Z,23.70
2023-07-14T09:35:30.377Z,23.70
2023-07-14T09:37:59.796Z,23.80
2023-07-14T09:40:31.999Z,23.90
2023-07-14T09:43:00.767Z,23.90
2023-07-14T09:45:36.313Z,23.80
2023-07-14T09:48:14.444Z,23.80
2023-07-14T09:50:53.474Z,23.80
2023-07-14T09:53:20.162Z,23.80
2023-07-14T09:55:57.436Z,23.80
2023-07-14T09:58:28.416Z,23.80
2023-07-14T10:01:00.481Z,23.80
2023-07-14T10:03:44.429Z,23.80
2023-07-14T10:06:27.687Z,23.80
2023-07-14T10:08:56.260Z,23.90
2023-07-14T10:11:39.158Z,23.90
2023-07-14T10:14:28.426Z,24.10
2023-07-14T10:16:58.439Z,24.20
2023-07-14T10:19:42.533Z,24.30
2023-07-14T10:22:15.388Z,24.40
2023-07-14T10:24:56.018Z,24.50
2023-07-14T10:27:27.595Z,24.60
2023-07-14T10:30:06.462Z,24.70
2023-07-14T10:32:43.255Z,24.80
2023-07-14T10:35:23.396Z,24.90
2023-07-14T10:38:08.541Z,25.10
2023-07-14T10:40:39.687Z,25.30
2023-07-14T10:43:18.508Z,25.30
2023-07-14T10:45:51.065Z,25.40
2023-07-14T10:48:31.311Z,25.40
2023-07-14T10:51:11.956Z,25.50
2023-07-14T10:53:47.337Z,25.60
2023-07-14T10:56:24.301Z,25.60
2023-07-14T10:58:59.598Z,25.70
2023-07-14T11:01:40.222Z,25.80
2023-07-14T11:04:23.306Z,25.90
2023-07-14T11:06:55.762Z,25.90
2023-07-14T11:09:23.959Z,26.00
2023-07-14T11:11:56.774Z,26.10
2023-07-14T11:14:44.666Z,26.20
2023-07-14T11:17:35.331Z,26.30
2023-07-14T11:20:13.814Z,26.40
2023-07-14T11:23:16.292Z,26.50
2023-07-14T11:26:25.992Z,26.50
2023-07-14T11:29:17.205Z,26.50
2023-07-14T11:32:03.323Z,26.60
2023-07-14T11:34:48.991Z,26.60
2023-07-14T11:37:57.296Z,26.70
2023-07-14T11:40:26.302Z,26.70
2023-07-14T11:42:59.059Z,26.70
2023-07-14T11:45:29.954Z,26.80
2023-07-14T11:47:58.996Z,26.80
2023-07-14T11:50:39.283Z,26.80
2023-07-14T11:53:08.493Z,26.80
2023-07-14T11:55:38.930Z,26.80
2023-07-14T11:58:18.552Z,26.80
2023-07-14T12:00:48.695Z,26.90
2023-07-14T12:03:38.859Z,26.90
2023-07-14T12:06:20.743Z,26.90
2023-07-14T12:09:15.319Z,26.90
2023-07-14T12:11:43.866Z,27.00
2023-07-14T12:14:35.742Z,27.00
2023-07-14T12:17:04.319Z,27.10
2023-07-14T12:19:55.271Z,27.10
2023-07-14T12:22:47.560Z,27.10
2023-07-14T12:25:17.769Z,27.20
2023-07-14T12:27:50.460Z,27.30
2023-07-14T12:30:27.999Z,27.30
2023-07-14T12:33:00.871Z,27.40
2023-07-14T12:35:28.387Z,27.40
2023-07-14T12:37:55.068Z,27.40
2023-07-14T12:40:24.888Z,27.40
2023-07-14T12:42:53.046Z,27.40
2023-07-14T12:45:21.800Z,27.30
2023-07-14T12:47:50.789Z,27.20
2023-07-14T12:50:21.355Z,27.20
2023-07-14T12:52:50.053Z,27.10
2023-07-14T12:55:24.951Z,27.10
2023-07-14T12:57:52.509Z,27.10
2023-07-14T13:00:25.519Z,27.10
2023-07-14T13:02:53.635Z,27.00
2023-07-14T13:05:35.264Z,27.00
2023-07-14T13:08:05.796Z,26.90
2023-07-14T13:10:42.400Z,26.80
2023-07-14T13:13:15.410Z,26.70
2023-07-14T13:15:43.178Z,26.70
2023-07-14T13:18:19.703Z,26.70
2023-07-14T13:20:46.436Z,26.60
2023-07-14T13:23:19.395Z,26.60
2023-07-14T13:26:04.541Z,26.60
2023-07-14T13:28:41.455Z,26.60
2023-07-14T13:31:22.202Z,26.60
2023-07-14T13:33:49.352Z,26.60
2023-07-14T13:36:23.992Z,26.60
2023-07-14T13:38:51.942Z,26.60
2023-07-14T13:41:28.637Z,26.60
2023-07-14T13:44:32.913Z,26.60
2023-07-14T13:47:22.386Z,26.60
2023-07-14T13:49:50.633Z,26.60
2023-07-14T13:52:33.953Z,26.60
2023-07-14T13:55:12.664Z,26.70
2023-07-14T13:57:40.131Z,26.70
2023-07-14T14:00:10.520Z,26.70
2023-07-14T14:02:45.976Z,26.70
2023-07-14T14:05:15.801Z,26.70
2023-07-14T14:07:42.785Z,26.80
2023-07-14T14:10:20.748Z,26.70
2023-07-14T14:12:47.580Z,26.80
2023-07-14T14:15:20.178Z,26.80
2023-07-14T14:17:52.129Z,26.80
2023-07-14T14:20:22.884Z,26.80
2023-07-14T14:22:49.930Z,26.80
2023-07-14T14:25:25.406Z,26.80
2023-07-14T14:27:53.302Z,26.70
2023-07-14T14:30:23.065Z,26.70
2023-07-14T14:32:49.903Z,26.70
2023-07-14T14:35:31.270Z,26.70
2023-07-14T14:37:59.721Z,26.70
2023-07-14T14:40:30.038Z,26.70
2023-07-14T14:43:07.011Z,26.70
2023-07-14T14:45:33.678Z,26.70
2023-07-14T14:48:00.356Z,26.70
2023-07-14T14:50:27.074Z,26.70
2023-07-14T14:52:54.043Z,26.70
2023-07-14T14:55:22.911Z,26.70
2023-07-14T14:57:53.684Z,26.80
2023-07-14T15:00:25.131Z,26.80
2023-07-14T15:02:53.099Z,26.80
2023-07-14T15:05:22.373Z,26.90
2023-07-14T15:07:53.388Z,26.90
2023-07-14T15:10:23.267Z,27.00
2023-07-14T15:12:50.821Z,27.00
2023-07-14T15:15:29.566Z,27.10
2023-07-14T15:17:57.799Z,27.10
2023-07-14T15:20:24.534Z,27.10
2023-07-14T15:22:52.799Z,27.10
2023-07-14T15:25:19.852Z,27.10
2023-07-14T15:27:48.448Z,27.10
2023-07-14T15:30:33.228Z,27.10
2023-07-14T15:33:03.318Z,27.10
2023-07-14T15:35:43.982Z,27.10
2023-07-14T15:38:20.494Z,27.10
2023-07-14T15:40:52.575Z,27.10
2023-07-14T15:43:23.924Z,27.10
2023-07-14T15:45:54.744Z,27.10
2023-07-14T15:48:41.880Z,27.00
2023-07-14T15:51:19.933Z,27.10
2023-07-14T15:53:47.296Z,27.10
2023-07-14T15:56:20.142Z,27.10
2023-07-14T15:58:47.575Z,27.10
2023-07-14T16:03:46.001Z,27.10
2023-07-14T16:06:15.513Z,27.10
2023-07-14T16:08:44.724Z,27.10
2023-07-14T16:11:24.714Z,27.10
2023-07-14T16:13:52.096Z,27.00
2023-07-14T16:16:18.848Z,27.00
2023-07-14T16:18:45.793Z,27.10
2023-07-14T16:21:24.694Z,27.10
2023-07-14T16:23:53.188Z,27.10
2023-07-14T16:26:21.678Z,27.10
2023-07-14T16:28:48.705Z,27.10
2023-07-14T16:31:17.146Z,27.20
2023-07-14T16:33:44.703Z,27.20
2023-07-14T16:36:25.028Z,27.20
2023-07-14T16:38:52.872Z,27.30
2023-07-14T16:41:19.689Z,27.30
2023-07-14T16:43:47.022Z,27.40
2023-07-14T16:46:14.226Z,27.40
2023-07-14T16:48:41.254Z,27.50
2023-07-14T16:51:14.487Z,27.60
2023-07-14T16:53:41.843Z,27.60
2023-07-14T16:56:13.403Z,27.70
2023-07-14T16:58:40.860Z,27.70
2023-07-14T17:01:16.474Z,27.60
2023-07-14T17:03:43.979Z,27.60
2023-07-14T17:06:12.587Z,27.60
2023-07-14T17:08:42.937Z,27.70
2023-07-14T17:11:10.646Z,27.70
2023-07-14T17:13:43.532Z,27.70
2023-07-14T17:16:10.785Z,27.70
2023-07-14T17:18:40.410Z,27.70
2023-07-14T17:21:10.147Z,27.70
2023-07-14T17:23:39.012Z,27.80
2023-07-14T17:26:06.704Z,27.80
2023-07-14T17:28:34.151Z,27.80
2023-07-14T17:31:02.165Z,27.80
2023-07-14T17:33:30.078Z,27.80
2023-07-14T17:36:02.772Z,27.80
2023-07-14T17:38:32.718Z,27.80
2023-07-14T17:41:00.119Z,27.80
2023-07-14T17:43:26.990Z,27.70
2023-07-14T17:45:53.847Z,27.70
2023-07-14T17:48:20.822Z,27.60
2023-07-14T17:50:52.267Z,27.60
2023-07-14T17:53:24.697Z,27.50
2023-07-14T17:55:52.798Z,27.50
2023-07-14T17:58:22.088Z,27.40
2023-07-14T18:00:50.234Z,27.30
2023-07-14T18:03:29.261Z,27.30
2023-07-14T18:05:58.669Z,27.30
2023-07-14T18:08:26.286Z,27.30
2023-07-14T18:10:56.452Z,27.20
2023-07-14T18:13:27.755Z,27.10
2023-07-14T18:15:55.761Z,27.10
2023-07-14T18:18:25.216Z,27.10
2023-07-14T18:20:56.805Z,27.10
2023-07-14T18:23:26.981Z,27.00
2023-07-14T18:25:54.196Z,26.90
2023-07-14T18:28:26.429Z,26.80
2023-07-14T18:30:54.802Z,26.80
2023-07-14T18:33:27.680Z,26.70
2023-07-14T18:35:58.125Z,26.60
2023-07-14T18:38:27.014Z,26.60
2023-07-14T18:40:56.558Z,26.50
2023-07-14T18:43:35.824Z,26.40
2023-07-14T18:46:04.447Z,26.40
2023-07-14T18:48:32.522Z,26.30
2023-07-14T18:51:15.045Z,26.20
2023-07-14T18:53:41.933Z,26.20
2023-07-14T18:56:10.145Z,26.10
2023-07-14T18:58:38.148Z,26.00
2023-07-14T19:01:05.953Z,25.90
2023-07-14T19:03:39.445Z,25.90
2023-07-14T19:06:12.346Z,25.80
2023-07-14T19:08:39.320Z,25.80
2023-07-14T19:11:14.908Z,25.60
2023-07-14T19:13:42.010Z,25.60
2023-07-14T19:16:27.690Z,25.50
2023-07-14T19:18:55.404Z,25.50
2023-07-14T19:21:27.940Z,25.40
2023-07-14T19:23:56.700Z,25.30
2023-07-14T19:26:23.510Z,25.30
2023-07-14T19:28:50.158Z,25.20
2023-07-14T19:31:28.580Z,25.20
2023-07-14T19:33:55.923Z,25.10
2023-07-14T19:36:24.076Z,25.00
2023-07-14T19:38:53.965Z,25.00
2023-07-14T19:41:20.797Z,24.90
2023-07-14T19:43:51.605Z,24.80
2023-07-14T19:46:19.105Z,24.80
2023-07-14T19:48:46.631Z,24.70
2023-07-14T19:51:23.135Z,24.70
2023-07-14T19:53:51.060Z,24.60
2023-07-14T19:56:17.942Z,24.50
2023-07-14T19:58:44.827Z,24.50
2023-07-14T20:01:16.491Z,24.40
2023-07-14T20:03:45.061Z,24.40
2023-07-14T20:06:25.083Z,24.30
2023-07-14T20:08:58.172Z,24.20
2023-07-14T20:11:27.145Z,24.20
2023-07-14T20:13:54.701Z,24.10
2023-07-14T20:16:23.108Z,24.00
2023-07-14T20:18:50.655Z,24.00
2023-07-14T20:21:24.010Z,24.00
2023-07-14T20:23:50.944Z,23.90
2023-07-14T20:26:18.219Z,23.90
2023-07-14T20:28:47.503Z,23.80
2023-07-14T20:31:21.206Z,23.80
2023-07-14T20:33:55.692Z,23.80
2023-07-14T20:36:25.170Z,23.70
2023-07-14T20:38:52.384Z,23.60
2023-07-14T20:41:24.014Z,23.60
2023-07-14T20:43:50.996Z,23.60
2023-07-14T20:46:22.510Z,23.50
2023-07-14T20:49:02.068Z,23.50
2023-07-14T20:51:37.071Z,23.50
2023-07-14T20:54:03.858Z,23.40
2023-07-14T20:56:30.560Z,23.30
2023-07-14T20:58:57.298Z,23.40
2023-07-14T21:01:27.214Z,23.30
2023-07-14T21:03:54.185Z,23.20
2023-07-14T21:06:28.384Z,23.20
2023-07-14T21:08:57.660Z,23.20
2023-07-14T21:11:28.015Z,23.20
2023-07-14T21:13:59.703Z,23.10
2023-07-14T21:16:29.174Z,23.10
2023-07-14T21:18:56.636Z,23.10
2023-07-14T21:21:25.083Z,23.00
2023-07-14T21:23:51.972Z,23.00
2023-07-14T21:26:28.721Z,22.90
2023-07-14T21:28:58.079Z,22.90
2023-07-14T21:31:32.734Z,22.90
2023-07-14T21:34:00.703Z,22.90
2023-07-14T21:36:28.360Z,22.90
2023-07-14T21:38:57.717Z,22.80
2023-07-14T21:41:26.058Z,22.80
2023-07-14T21:43:55.948Z,22.80
2023-07-14T21:46:23.094Z,22.80
2023-07-14T21:48:50.039Z,22.80
2023-07-14T21:51:25.814Z,22.70
2023-07-14T21:53:57.279Z,22.70
2023-07-14T21:56:24.085Z,22.70
2023-07-14T21:58:50.960Z,22.70
2023-07-14T22:01:27.924Z,22.70
2023-07-14T22:03:56.809Z,22.70
2023-07-14T22:06:25.164Z,22.60
2023-07-14T22:08:52.126Z,22.60
2023-07-14T22:11:22.752Z,22.60
2023-07-14T22:13:50.245Z,22.60
2023-07-14T22:16:19.385Z,22.60
2023-07-14T22:18:48.445Z,22.50
2023-07-14T22:21:23.477Z,22.50
2023-07-14T22:23:51.769Z,22.50
2023-07-14T22:26:20.955Z,22.50
2023-07-14T22:28:48.644Z,22.50
2023-07-14T22:31:26.435Z,22.40
2023-07-14T22:33:54.881Z,22.40
2023-07-14T22:36:24.651Z,22.50
2023-07-14T22:38:51.836Z,22.40
2023-07-14T22:41:32.136Z,22.40
2023-07-14T22:43:59.859Z,22.40
2023-07-14T22:46:27.758Z,22.30
2023-07-14T22:48:54.657Z,22.30
2023-07-14T22:51:30.622Z,22.30
2023-07-14T22:53:59.245Z,22.30
2023-07-14T22:56:27.041Z,22.20
2023-07-14T22:58:54.134Z,22.20
2023-07-14T23:01:30.286Z,22.20
2023-07-14T23:03:57.579Z,22.20
2023-07-14T23:06:25.106Z,22.20
2023-07-14T23:08:55.526Z,22.20
2023-07-14T23:11:23.526Z,22.10
2023-07-14T23:13:50.593Z,22.10
2023-07-14T23:16:22.168Z,22.10
2023-07-14T23:18:49.578Z,22.10
2023-07-14T23:21:23.157Z,22.00
2023-07-14T23:23:51.405Z,22.00
2023-07-14T23:26:20.647Z,22.10
2023-07-14T23:28:50.004Z,22.00
2023-07-14T23:31:28.817Z,21.90
2023-07-14T23:33:56.846Z,21.90
2023-07-14T23:36:25.483Z,21.90
2023-07-14T23:38:53.342Z,21.90
2023-07-14T23:41:28.657Z,21.90
2023-07-14T23:43:56.445Z,21.90
2023-07-14T23:46:24.740Z,21.80
2023-07-14T23:48:53.084Z,21.80
2023-07-14T23:51:34.564Z,21.80
2023-07-14T23:54:05.268Z,21.80
2023-07-14T23:56:35.186Z,21.70
2023-07-14T23:59:02.112Z,21.70
